sensor_id;sensor_type;location;lat;lon;timestamp;temperature;humidity
9425;DHT22;17139;52.140;11.636;2024-03-23T00:54:12;8.40;63.40
9425;DHT22;17139;52.140;11.636;2024-03-23T00:56:38;8.40;63.30
9425;DHT22;17139;52.140;11.636;2024-03-23T00:59:03;8.40;63.40
9425;DHT22;17139;52.140;11.636;2024-03-23T01:01:29;8.40;63.40
9425;DHT22;17139;52.140;11.636;2024-03-23T01:03:55;8.40;63.40
9425;DHT22;17139;52.140;11.636;2024-03-23T01:06:21;8.40;63.30
9425;DHT22;17139;52.140;11.636;2024-03-23T01:08:47;8.40;63.20
9425;DHT22;17139;52.140;11.636;2024-03-23T01:11:14;8.40;63.20
9425;DHT22;17139;52.140;11.636;2024-03-23T01:13:40;9.30;63.30
9425;DHT22;17139;52.140;11.636;2024-03-23T01:16:06;9.10;62.30
9425;DHT22;17139;52.140;11.636;2024-03-23T01:18:32;8.80;62.50
9425;DHT22;17139;52.140;11.636;2024-03-23T01:20:57;8.60;62.70
9425;DHT22;17139;52.140;11.636;2024-03-23T01:23:23;8.50;62.90
9425;DHT22;17139;52.140;11.636;2024-03-23T01:25:52;8.40;63.10
9425;DHT22;17139;52.140;11.636;2024-03-23T01:28:20;8.40;63.50
9425;DHT22;17139;52.140;11.636;2024-03-23T01:30:46;8.30;63.40
9425;DHT22;17139;52.140;11.636;2024-03-23T01:33:12;8.30;63.60
9425;DHT22;17139;52.140;11.636;2024-03-23T01:35:38;8.30;63.50
9425;DHT22;17139;52.140;11.636;2024-03-23T01:38:04;8.30;64.30
9425;DHT22;17139;52.140;11.636;2024-03-23T01:40:30;8.20;63.30
9425;DHT22;17139;52.140;11.636;2024-03-23T01:42:56;8.20;63.30
9425;DHT22;17139;52.140;11.636;2024-03-23T01:45:23;8.10;63.30
9425;DHT22;17139;52.140;11.636;2024-03-23T01:47:49;8.60;63.60
9425;DHT22;17139;52.140;11.636;2024-03-23T01:50:15;8.40;62.50
9425;DHT22;17139;52.140;11.636;2024-03-23T01:52:41;8.20;62.60
9425;DHT22;17139;52.140;11.636;2024-03-23T01:55:08;8.70;62.80
9425;DHT22;17139;52.140;11.636;2024-03-23T01:57:34;8.60;62.20
9425;DHT22;17139;52.140;11.636;2024-03-23T02:00:00;8.30;62.40
9425;DHT22;17139;52.140;11.636;2024-03-23T02:02:27;8.20;62.70
9425;DHT22;17139;52.140;11.636;2024-03-23T02:04:53;8.10;63.00
9425;DHT22;17139;52.140;11.636;2024-03-23T02:07:18;8.10;63.10
9425;DHT22;17139;52.140;11.636;2024-03-23T02:09:44;8.00;63.00
9425;DHT22;17139;52.140;11.636;2024-03-23T02:12:11;7.90;63.00
9425;DHT22;17139;52.140;11.636;2024-03-23T02:14:37;7.90;63.10
9425;DHT22;17139;52.140;11.636;2024-03-23T02:17:02;7.80;63.10
9425;DHT22;17139;52.140;11.636;2024-03-23T02:19:30;7.70;63.00
9425;DHT22;17139;52.140;11.636;2024-03-23T02:21:56;7.60;62.90
9425;DHT22;17139;52.140;11.636;2024-03-23T02:24:23;7.50;63.10
9425;DHT22;17139;52.140;11.636;2024-03-23T02:26:49;7.40;63.20
9425;DHT22;17139;52.140;11.636;2024-03-23T02:29:14;7.60;63.40
9425;DHT22;17139;52.140;11.636;2024-03-23T02:31:40;7.50;62.60
9425;DHT22;17139;52.140;11.636;2024-03-23T02:34:06;7.40;62.80
9425;DHT22;17139;52.140;11.636;2024-03-23T02:36:32;7.50;62.90
9425;DHT22;17139;52.140;11.636;2024-03-23T02:38:58;7.30;62.50
9425;DHT22;17139;52.140;11.636;2024-03-23T02:41:25;7.10;62.90
9425;DHT22;17139;52.140;11.636;2024-03-23T02:43:51;6.90;63.20
9425;DHT22;17139;52.140;11.636;2024-03-23T02:46:17;6.80;63.30
9425;DHT22;17139;52.140;11.636;2024-03-23T02:48:43;6.60;63.30
9425;DHT22;17139;52.140;11.636;2024-03-23T02:51:09;6.50;63.50
9425;DHT22;17139;52.140;11.636;2024-03-23T02:53:35;6.40;63.60
9425;DHT22;17139;52.140;11.636;2024-03-23T02:56:00;6.40;63.80
9425;DHT22;17139;52.140;11.636;2024-03-23T02:58:28;6.50;63.90
9425;DHT22;17139;52.140;11.636;2024-03-23T03:00:53;6.50;63.80
9425;DHT22;17139;52.140;11.636;2024-03-23T03:03:19;6.50;63.80
9425;DHT22;17139;52.140;11.636;2024-03-23T03:05:45;6.50;63.50
9425;DHT22;17139;52.140;11.636;2024-03-23T03:08:11;6.60;63.60
9425;DHT22;17139;52.140;11.636;2024-03-23T03:10:37;6.50;63.50
9425;DHT22;17139;52.140;11.636;2024-03-23T03:13:03;6.50;63.50
9425;DHT22;17139;52.140;11.636;2024-03-23T03:15:30;6.50;63.40
9425;DHT22;17139;52.140;11.636;2024-03-23T03:17:56;6.60;63.70
9425;DHT22;17139;52.140;11.636;2024-03-23T03:20:22;6.60;63.30
9425;DHT22;17139;52.140;11.636;2024-03-23T03:22:48;6.50;63.30
9425;DHT22;17139;52.140;11.636;2024-03-23T03:25:13;6.40;63.50
9425;DHT22;17139;52.140;11.636;2024-03-23T03:27:39;6.30;64.40
9425;DHT22;17139;52.140;11.636;2024-03-23T03:30:06;6.30;64.40
9425;DHT22;17139;52.140;11.636;2024-03-23T03:32:33;6.20;64.30
9425;DHT22;17139;52.140;11.636;2024-03-23T03:34:59;6.30;64.30
9425;DHT22;17139;52.140;11.636;2024-03-23T03:37:25;6.30;64.10
9425;DHT22;17139;52.140;11.636;2024-03-23T03:39:51;6.30;64.00
9425;DHT22;17139;52.140;11.636;2024-03-23T03:42:17;6.20;63.80
9425;DHT22;17139;52.140;11.636;2024-03-23T03:44:42;6.20;63.80
9425;DHT22;17139;52.140;11.636;2024-03-23T03:47:08;6.20;63.80
9425;DHT22;17139;52.140;11.636;2024-03-23T03:49:36;6.20;63.80
9425;DHT22;17139;52.140;11.636;2024-03-23T03:52:01;6.10;63.80
9425;DHT22;17139;52.140;11.636;2024-03-23T03:54:27;6.80;62.00
9425;DHT22;17139;52.140;11.636;2024-03-23T03:56:53;6.50;61.10
9425;DHT22;17139;52.140;11.636;2024-03-23T03:59:19;6.30;62.90
9425;DHT22;17139;52.140;11.636;2024-03-23T04:01:45;6.10;63.40
9425;DHT22;17139;52.140;11.636;2024-03-23T04:04:11;6.00;63.70
9425;DHT22;17139;52.140;11.636;2024-03-23T04:06:38;5.90;64.00
9425;DHT22;17139;52.140;11.636;2024-03-23T04:09:04;5.90;64.00
9425;DHT22;17139;52.140;11.636;2024-03-23T04:11:29;5.90;64.00
9425;DHT22;17139;52.140;11.636;2024-03-23T04:13:55;5.90;64.00
9425;DHT22;17139;52.140;11.636;2024-03-23T04:16:27;5.80;63.90
9425;DHT22;17139;52.140;11.636;2024-03-23T04:18:53;5.80;63.90
9425;DHT22;17139;52.140;11.636;2024-03-23T04:21:19;5.80;63.90
9425;DHT22;17139;52.140;11.636;2024-03-23T04:23:46;5.70;63.90
9425;DHT22;17139;52.140;11.636;2024-03-23T04:26:12;5.60;64.00
9425;DHT22;17139;52.140;11.636;2024-03-23T04:28:38;5.60;64.00
9425;DHT22;17139;52.140;11.636;2024-03-23T04:31:04;5.50;64.00
9425;DHT22;17139;52.140;11.636;2024-03-23T04:33:30;5.50;64.00
9425;DHT22;17139;52.140;11.636;2024-03-23T04:35:56;5.90;63.20
9425;DHT22;17139;52.140;11.636;2024-03-23T04:38:22;5.80;62.70
9425;DHT22;17139;52.140;11.636;2024-03-23T04:40:55;5.70;63.20
9425;DHT22;17139;52.140;11.636;2024-03-23T04:43:21;6.40;60.70
9425;DHT22;17139;52.140;11.636;2024-03-23T04:45:47;6.20;61.90
9425;DHT22;17139;52.140;11.636;2024-03-23T04:48:13;6.00;62.40
9425;DHT22;17139;52.140;11.636;2024-03-23T04:50:39;5.80;63.00
9425;DHT22;17139;52.140;11.636;2024-03-23T04:53:04;5.70;63.30
9425;DHT22;17139;52.140;11.636;2024-03-23T04:55:31;5.60;63.40
9425;DHT22;17139;52.140;11.636;2024-03-23T04:57:58;5.50;63.50
9425;DHT22;17139;52.140;11.636;2024-03-23T05:00:24;5.40;63.50
9425;DHT22;17139;52.140;11.636;2024-03-23T05:02:49;5.40;63.60
9425;DHT22;17139;52.140;11.636;2024-03-23T05:05:15;5.30;63.60
9425;DHT22;17139;52.140;11.636;2024-03-23T05:07:41;5.30;63.70
9425;DHT22;17139;52.140;11.636;2024-03-23T05:10:09;5.20;63.70
9425;DHT22;17139;52.140;11.636;2024-03-23T05:12:35;5.20;63.80
9425;DHT22;17139;52.140;11.636;2024-03-23T05:15:02;5.20;63.80
9425;DHT22;17139;52.140;11.636;2024-03-23T05:17:28;5.10;63.80
9425;DHT22;17139;52.140;11.636;2024-03-23T05:19:54;5.10;63.90
9425;DHT22;17139;52.140;11.636;2024-03-23T05:22:19;5.00;63.80
9425;DHT22;17139;52.140;11.636;2024-03-23T05:24:45;5.70;62.70
9425;DHT22;17139;52.140;11.636;2024-03-23T05:27:11;5.60;62.40
9425;DHT22;17139;52.140;11.636;2024-03-23T05:29:37;5.40;62.80
9425;DHT22;17139;52.140;11.636;2024-03-23T05:32:04;5.30;63.10
9425;DHT22;17139;52.140;11.636;2024-03-23T05:34:30;5.20;63.40
9425;DHT22;17139;52.140;11.636;2024-03-23T05:36:56;5.20;63.50
9425;DHT22;17139;52.140;11.636;2024-03-23T05:39:22;5.10;63.60
9425;DHT22;17139;52.140;11.636;2024-03-23T05:41:48;5.10;63.70
9425;DHT22;17139;52.140;11.636;2024-03-23T05:44:13;5.00;63.70
9425;DHT22;17139;52.140;11.636;2024-03-23T05:46:39;5.00;63.70
9425;DHT22;17139;52.140;11.636;2024-03-23T05:49:06;5.00;63.70
9425;DHT22;17139;52.140;11.636;2024-03-23T05:51:32;5.00;63.70
9425;DHT22;17139;52.140;11.636;2024-03-23T05:53:58;5.00;63.60
9425;DHT22;17139;52.140;11.636;2024-03-23T05:56:24;4.90;63.50
9425;DHT22;17139;52.140;11.636;2024-03-23T05:58:49;4.90;63.50
9425;DHT22;17139;52.140;11.636;2024-03-23T06:01:15;4.90;63.50
9425;DHT22;17139;52.140;11.636;2024-03-23T06:03:41;4.90;63.40
9425;DHT22;17139;52.140;11.636;2024-03-23T06:06:08;4.90;63.50
9425;DHT22;17139;52.140;11.636;2024-03-23T06:08:34;4.80;63.30
9425;DHT22;17139;52.140;11.636;2024-03-23T06:11:00;4.80;63.40
9425;DHT22;17139;52.140;11.636;2024-03-23T06:13:26;4.80;63.40
9425;DHT22;17139;52.140;11.636;2024-03-23T06:15:51;4.90;63.40
9425;DHT22;17139;52.140;11.636;2024-03-23T06:18:18;4.90;63.30
9425;DHT22;17139;52.140;11.636;2024-03-23T06:20:43;4.90;63.20
9425;DHT22;17139;52.140;11.636;2024-03-23T06:23:10;5.00;63.20
9425;DHT22;17139;52.140;11.636;2024-03-23T06:25:36;5.00;63.10
9425;DHT22;17139;52.140;11.636;2024-03-23T06:28:02;5.10;63.20
9425;DHT22;17139;52.140;11.636;2024-03-23T06:30:28;5.10;63.10
9425;DHT22;17139;52.140;11.636;2024-03-23T06:32:54;5.10;63.10
9425;DHT22;17139;52.140;11.636;2024-03-23T06:35:20;5.10;63.00
9425;DHT22;17139;52.140;11.636;2024-03-23T06:37:45;5.00;63.00
9425;DHT22;17139;52.140;11.636;2024-03-23T06:40:13;5.00;63.00
9425;DHT22;17139;52.140;11.636;2024-03-23T06:42:39;5.10;63.00
9425;DHT22;17139;52.140;11.636;2024-03-23T06:45:06;5.10;62.70
9425;DHT22;17139;52.140;11.636;2024-03-23T06:47:32;5.10;62.90
9425;DHT22;17139;52.140;11.636;2024-03-23T06:49:59;5.30;62.70
9425;DHT22;17139;52.140;11.636;2024-03-23T06:52:25;5.30;62.30
9425;DHT22;17139;52.140;11.636;2024-03-23T06:54:51;5.20;62.60
9425;DHT22;17139;52.140;11.636;2024-03-23T06:57:18;5.20;62.70
9425;DHT22;17139;52.140;11.636;2024-03-23T06:59:44;5.20;62.80
9425;DHT22;17139;52.140;11.636;2024-03-23T07:02:10;5.10;62.80
9425;DHT22;17139;52.140;11.636;2024-03-23T07:04:35;5.10;62.90
9425;DHT22;17139;52.140;11.636;2024-03-23T07:07:02;5.10;63.00
9425;DHT22;17139;52.140;11.636;2024-03-23T07:09:28;5.00;62.90
9425;DHT22;17139;52.140;11.636;2024-03-23T07:11:54;5.00;63.00
9425;DHT22;17139;52.140;11.636;2024-03-23T07:14:21;5.00;63.00
9425;DHT22;17139;52.140;11.636;2024-03-23T07:16:47;4.90;63.00
9425;DHT22;17139;52.140;11.636;2024-03-23T07:19:12;4.90;63.10
9425;DHT22;17139;52.140;11.636;2024-03-23T07:21:38;4.70;62.90
9425;DHT22;17139;52.140;11.636;2024-03-23T07:24:04;4.70;63.00
9425;DHT22;17139;52.140;11.636;2024-03-23T07:26:30;4.70;62.90
9425;DHT22;17139;52.140;11.636;2024-03-23T07:28:56;4.50;62.90
9425;DHT22;17139;52.140;11.636;2024-03-23T07:31:23;4.90;62.50
9425;DHT22;17139;52.140;11.636;2024-03-23T07:33:49;4.70;62.10
9425;DHT22;17139;52.140;11.636;2024-03-23T07:36:15;4.60;62.70
9425;DHT22;17139;52.140;11.636;2024-03-23T07:38:41;4.50;63.00
9425;DHT22;17139;52.140;11.636;2024-03-23T07:41:08;4.40;63.10
9425;DHT22;17139;52.140;11.636;2024-03-23T07:43:34;4.40;63.20
9425;DHT22;17139;52.140;11.636;2024-03-23T07:46:01;4.30;63.30
9425;DHT22;17139;52.140;11.636;2024-03-23T07:48:28;4.20;63.10
9425;DHT22;17139;52.140;11.636;2024-03-23T07:51:02;4.20;63.20
9425;DHT22;17139;52.140;11.636;2024-03-23T07:53:28;4.20;63.20
9425;DHT22;17139;52.140;11.636;2024-03-23T07:55:56;4.20;63.30
9425;DHT22;17139;52.140;11.636;2024-03-23T07:58:21;4.10;63.20
9425;DHT22;17139;52.140;11.636;2024-03-23T08:00:47;4.10;63.10
9425;DHT22;17139;52.140;11.636;2024-03-23T08:03:13;4.20;63.20
9425;DHT22;17139;52.140;11.636;2024-03-23T08:05:40;4.20;63.20
9425;DHT22;17139;52.140;11.636;2024-03-23T08:08:06;4.20;63.10
9425;DHT22;17139;52.140;11.636;2024-03-23T08:10:32;4.90;61.60
9425;DHT22;17139;52.140;11.636;2024-03-23T08:12:58;5.40;60.00
9425;DHT22;17139;52.140;11.636;2024-03-23T08:15:23;5.00;60.30
9425;DHT22;17139;52.140;11.636;2024-03-23T08:17:49;4.60;61.20
9425;DHT22;17139;52.140;11.636;2024-03-23T08:20:15;4.40;62.60
9425;DHT22;17139;52.140;11.636;2024-03-23T08:22:42;4.20;62.30
9425;DHT22;17139;52.140;11.636;2024-03-23T08:25:08;4.20;62.70
9425;DHT22;17139;52.140;11.636;2024-03-23T08:27:34;4.20;62.80
9425;DHT22;17139;52.140;11.636;2024-03-23T08:30:00;4.20;62.70
9425;DHT22;17139;52.140;11.636;2024-03-23T08:32:26;4.20;62.80
9425;DHT22;17139;52.140;11.636;2024-03-23T08:34:51;4.20;62.80
9425;DHT22;17139;52.140;11.636;2024-03-23T08:37:17;4.20;62.80
9425;DHT22;17139;52.140;11.636;2024-03-23T08:39:44;4.20;62.80
9425;DHT22;17139;52.140;11.636;2024-03-23T08:42:10;4.60;62.20
9425;DHT22;17139;52.140;11.636;2024-03-23T08:44:36;5.20;60.00
9425;DHT22;17139;52.140;11.636;2024-03-23T08:47:02;5.00;60.40
9425;DHT22;17139;52.140;11.636;2024-03-23T08:49:27;5.00;60.60
9425;DHT22;17139;52.140;11.636;2024-03-23T08:51:53;4.80;60.80
9425;DHT22;17139;52.140;11.636;2024-03-23T08:54:19;4.60;61.50
9425;DHT22;17139;52.140;11.636;2024-03-23T08:56:46;4.50;62.00
9425;DHT22;17139;52.140;11.636;2024-03-23T08:59:12;4.40;62.20
9425;DHT22;17139;52.140;11.636;2024-03-23T09:01:38;4.40;62.50
9425;DHT22;17139;52.140;11.636;2024-03-23T09:04:04;4.40;62.60
9425;DHT22;17139;52.140;11.636;2024-03-23T09:06:30;4.40;62.70
9425;DHT22;17139;52.140;11.636;2024-03-23T09:08:55;4.30;62.70
9425;DHT22;17139;52.140;11.636;2024-03-23T09:11:21;4.90;61.90
9425;DHT22;17139;52.140;11.636;2024-03-23T09:13:49;5.50;60.30
9425;DHT22;17139;52.140;11.636;2024-03-23T09:16:14;5.30;60.50
9425;DHT22;17139;52.140;11.636;2024-03-23T09:18:40;5.90;59.80
9425;DHT22;17139;52.140;11.636;2024-03-23T09:21:11;5.60;60.00
9425;DHT22;17139;52.140;11.636;2024-03-23T09:23:38;5.40;60.90
9425;DHT22;17139;52.140;11.636;2024-03-23T09:26:04;5.20;61.50
9425;DHT22;17139;52.140;11.636;2024-03-23T09:28:30;5.20;61.70
9425;DHT22;17139;52.140;11.636;2024-03-23T09:31:02;5.10;62.10
9425;DHT22;17139;52.140;11.636;2024-03-23T09:33:28;5.10;62.10
9425;DHT22;17139;52.140;11.636;2024-03-23T09:35:54;5.10;62.30
9425;DHT22;17139;52.140;11.636;2024-03-23T09:38:19;5.10;62.30
9425;DHT22;17139;52.140;11.636;2024-03-23T09:40:46;5.10;62.20
9425;DHT22;17139;52.140;11.636;2024-03-23T09:43:13;5.20;62.10
9425;DHT22;17139;52.140;11.636;2024-03-23T09:45:40;5.10;61.80
9425;DHT22;17139;52.140;11.636;2024-03-23T09:48:09;5.20;62.00
9425;DHT22;17139;52.140;11.636;2024-03-23T09:50:36;5.20;62.00
9425;DHT22;17139;52.140;11.636;2024-03-23T09:53:02;5.40;61.90
9425;DHT22;17139;52.140;11.636;2024-03-23T09:55:28;5.50;61.50
9425;DHT22;17139;52.140;11.636;2024-03-23T09:57:54;5.60;61.30
9425;DHT22;17139;52.140;11.636;2024-03-23T10:00:20;5.70;61.10
9425;DHT22;17139;52.140;11.636;2024-03-23T10:02:46;5.70;61.30
9425;DHT22;17139;52.140;11.636;2024-03-23T10:05:22;5.70;61.40
9425;DHT22;17139;52.140;11.636;2024-03-23T10:07:49;5.70;61.40
9425;DHT22;17139;52.140;11.636;2024-03-23T10:10:16;5.70;61.50
9425;DHT22;17139;52.140;11.636;2024-03-23T10:12:44;5.80;61.50
9425;DHT22;17139;52.140;11.636;2024-03-23T10:15:17;5.90;61.50
9425;DHT22;17139;52.140;11.636;2024-03-23T10:17:43;6.00;61.40
9425;DHT22;17139;52.140;11.636;2024-03-23T10:20:10;6.70;59.20
9425;DHT22;17139;52.140;11.636;2024-03-23T10:22:39;7.10;58.30
9425;DHT22;17139;52.140;11.636;2024-03-23T10:25:08;6.90;58.70
9425;DHT22;17139;52.140;11.636;2024-03-23T10:27:35;7.30;58.40
9425;DHT22;17139;52.140;11.636;2024-03-23T10:30:08;7.00;58.70
9425;DHT22;17139;52.140;11.636;2024-03-23T10:32:35;6.90;59.40
9425;DHT22;17139;52.140;11.636;2024-03-23T10:35:14;6.80;59.70
9425;DHT22;17139;52.140;11.636;2024-03-23T10:37:42;6.80;60.60
9425;DHT22;17139;52.140;11.636;2024-03-23T10:40:10;6.80;60.10
9425;DHT22;17139;52.140;11.636;2024-03-23T10:42:37;6.60;60.10
9425;DHT22;17139;52.140;11.636;2024-03-23T10:45:04;6.60;60.30
9425;DHT22;17139;52.140;11.636;2024-03-23T10:47:31;6.60;60.30
9425;DHT22;17139;52.140;11.636;2024-03-23T10:49:57;6.60;60.30
9425;DHT22;17139;52.140;11.636;2024-03-23T10:52:22;6.60;60.30
9425;DHT22;17139;52.140;11.636;2024-03-23T10:54:51;6.70;60.40
9425;DHT22;17139;52.140;11.636;2024-03-23T10:57:18;6.80;60.50
9425;DHT22;17139;52.140;11.636;2024-03-23T10:59:46;6.90;60.30
9425;DHT22;17139;52.140;11.636;2024-03-23T11:02:19;7.30;59.40
9425;DHT22;17139;52.140;11.636;2024-03-23T11:04:45;7.20;59.20
9425;DHT22;17139;52.140;11.636;2024-03-23T11:07:29;6.90;59.40
9425;DHT22;17139;52.140;11.636;2024-03-23T11:09:57;6.60;59.70
9425;DHT22;17139;52.140;11.636;2024-03-23T11:12:30;6.30;61.10
9425;DHT22;17139;52.140;11.636;2024-03-23T11:14:58;6.20;61.40
9425;DHT22;17139;52.140;11.636;2024-03-23T11:17:26;6.50;59.50
9425;DHT22;17139;52.140;11.636;2024-03-23T11:19:56;7.00;57.70
9425;DHT22;17139;52.140;11.636;2024-03-23T11:22:38;6.40;58.30
9425;DHT22;17139;52.140;11.636;2024-03-23T11:25:13;6.20;59.90
9425;DHT22;17139;52.140;11.636;2024-03-23T11:27:39;5.70;60.50
9425;DHT22;17139;52.140;11.636;2024-03-23T11:30:15;5.30;61.60
9425;DHT22;17139;52.140;11.636;2024-03-23T11:32:42;5.30;62.40
9425;DHT22;17139;52.140;11.636;2024-03-23T11:35:08;5.40;62.50
9425;DHT22;17139;52.140;11.636;2024-03-23T11:37:34;5.70;62.30
9425;DHT22;17139;52.140;11.636;2024-03-23T11:40:00;5.90;62.20
9425;DHT22;17139;52.140;11.636;2024-03-23T11:42:27;6.10;62.00
9425;DHT22;17139;52.140;11.636;2024-03-23T11:44:53;6.30;61.80
9425;DHT22;17139;52.140;11.636;2024-03-23T11:47:19;6.70;60.40
9425;DHT22;17139;52.140;11.636;2024-03-23T11:49:44;6.80;60.10
9425;DHT22;17139;52.140;11.636;2024-03-23T11:52:10;6.90;60.00
9425;DHT22;17139;52.140;11.636;2024-03-23T11:54:36;6.90;59.90
9425;DHT22;17139;52.140;11.636;2024-03-23T11:57:03;6.90;60.10
9425;DHT22;17139;52.140;11.636;2024-03-23T11:59:35;6.90;60.30
9425;DHT22;17139;52.140;11.636;2024-03-23T12:02:06;7.00;60.60
9425;DHT22;17139;52.140;11.636;2024-03-23T12:04:32;7.00;60.60
9425;DHT22;17139;52.140;11.636;2024-03-23T12:07:11;7.00;60.50
9425;DHT22;17139;52.140;11.636;2024-03-23T12:09:37;6.70;60.00
9425;DHT22;17139;52.140;11.636;2024-03-23T12:12:08;6.50;60.60
9425;DHT22;17139;52.140;11.636;2024-03-23T12:14:35;6.50;61.10
9425;DHT22;17139;52.140;11.636;2024-03-23T12:17:11;6.60;61.00
9425;DHT22;17139;52.140;11.636;2024-03-23T12:19:36;6.70;60.80
9425;DHT22;17139;52.140;11.636;2024-03-23T12:22:03;7.30;60.00
9425;DHT22;17139;52.140;11.636;2024-03-23T12:24:29;7.20;59.80
9425;DHT22;17139;52.140;11.636;2024-03-23T12:27:04;7.80;59.00
9425;DHT22;17139;52.140;11.636;2024-03-23T12:29:30;7.50;59.20
9425;DHT22;17139;52.140;11.636;2024-03-23T12:31:56;7.30;59.90
9425;DHT22;17139;52.140;11.636;2024-03-23T12:34:22;7.20;60.50
9425;DHT22;17139;52.140;11.636;2024-03-23T12:36:48;7.00;60.70
9425;DHT22;17139;52.140;11.636;2024-03-23T12:39:13;7.00;60.70
9425;DHT22;17139;52.140;11.636;2024-03-23T12:41:39;6.80;60.80
9425;DHT22;17139;52.140;11.636;2024-03-23T12:44:06;7.30;62.50
9425;DHT22;17139;52.140;11.636;2024-03-23T12:46:32;7.30;61.50
9425;DHT22;17139;52.140;11.636;2024-03-23T12:48:58;7.50;62.50
9425;DHT22;17139;52.140;11.636;2024-03-23T12:51:24;7.50;61.60
9425;DHT22;17139;52.140;11.636;2024-03-23T12:53:50;7.50;61.40
9425;DHT22;17139;52.140;11.636;2024-03-23T12:56:15;7.40;61.60
9425;DHT22;17139;52.140;11.636;2024-03-23T12:58:41;7.50;61.70
9425;DHT22;17139;52.140;11.636;2024-03-23T13:01:08;7.60;61.60
9425;DHT22;17139;52.140;11.636;2024-03-23T13:03:34;7.70;61.70
9425;DHT22;17139;52.140;11.636;2024-03-23T13:06:00;7.80;61.50
9425;DHT22;17139;52.140;11.636;2024-03-23T13:08:26;7.80;61.30
9425;DHT22;17139;52.140;11.636;2024-03-23T13:10:52;7.80;61.40
9425;DHT22;17139;52.140;11.636;2024-03-23T13:13:18;8.10;61.50
9425;DHT22;17139;52.140;11.636;2024-03-23T13:15:49;8.00;61.00
9425;DHT22;17139;52.140;11.636;2024-03-23T13:18:16;8.00;61.30
9425;DHT22;17139;52.140;11.636;2024-03-23T13:20:42;8.90;58.90
9425;DHT22;17139;52.140;11.636;2024-03-23T13:23:08;8.70;59.20
9425;DHT22;17139;52.140;11.636;2024-03-23T13:25:34;8.70;59.30
9425;DHT22;17139;52.140;11.636;2024-03-23T13:28:00;8.50;59.20
9425;DHT22;17139;52.140;11.636;2024-03-23T13:30:26;8.40;59.40
9425;DHT22;17139;52.140;11.636;2024-03-23T13:32:51;8.20;58.80
9425;DHT22;17139;52.140;11.636;2024-03-23T13:35:19;8.00;58.80
9425;DHT22;17139;52.140;11.636;2024-03-23T13:37:44;7.80;59.00
9425;DHT22;17139;52.140;11.636;2024-03-23T13:40:11;7.60;59.20
9425;DHT22;17139;52.140;11.636;2024-03-23T13:42:37;7.50;59.60
9425;DHT22;17139;52.140;11.636;2024-03-23T13:45:03;7.50;59.40
9425;DHT22;17139;52.140;11.636;2024-03-23T13:47:29;7.50;59.60
9425;DHT22;17139;52.140;11.636;2024-03-23T13:49:55;7.50;59.70
9425;DHT22;17139;52.140;11.636;2024-03-23T13:52:22;8.00;57.80
9425;DHT22;17139;52.140;11.636;2024-03-23T13:54:48;7.80;58.20
9425;DHT22;17139;52.140;11.636;2024-03-23T13:57:14;7.60;58.30
9425;DHT22;17139;52.140;11.636;2024-03-23T13:59:40;7.40;58.90
9425;DHT22;17139;52.140;11.636;2024-03-23T14:02:06;7.20;59.20
9425;DHT22;17139;52.140;11.636;2024-03-23T14:04:32;7.10;59.30
9425;DHT22;17139;52.140;11.636;2024-03-23T14:06:58;7.10;59.40
9425;DHT22;17139;52.140;11.636;2024-03-23T14:09:27;7.10;59.50
9425;DHT22;17139;52.140;11.636;2024-03-23T14:11:53;7.20;59.50
9425;DHT22;17139;52.140;11.636;2024-03-23T14:14:19;7.50;59.50
9425;DHT22;17139;52.140;11.636;2024-03-23T14:16:44;7.70;59.30
9425;DHT22;17139;52.140;11.636;2024-03-23T14:19:10;8.00;59.10
9425;DHT22;17139;52.140;11.636;2024-03-23T14:21:36;8.10;59.00
9425;DHT22;17139;52.140;11.636;2024-03-23T14:24:02;8.20;58.80
9425;DHT22;17139;52.140;11.636;2024-03-23T14:26:29;8.30;58.90
9425;DHT22;17139;52.140;11.636;2024-03-23T14:28:55;8.30;58.70
9425;DHT22;17139;52.140;11.636;2024-03-23T14:31:21;8.20;58.60
9425;DHT22;17139;52.140;11.636;2024-03-23T14:33:47;8.00;58.60
9425;DHT22;17139;52.140;11.636;2024-03-23T14:36:13;7.90;58.60
9425;DHT22;17139;52.140;11.636;2024-03-23T14:38:39;7.70;58.50
9425;DHT22;17139;52.140;11.636;2024-03-23T14:41:05;7.40;58.70
9425;DHT22;17139;52.140;11.636;2024-03-23T14:43:33;7.20;58.90
9425;DHT22;17139;52.140;11.636;2024-03-23T14:46:08;6.90;59.20
9425;DHT22;17139;52.140;11.636;2024-03-23T14:48:35;6.70;59.50
9425;DHT22;17139;52.140;11.636;2024-03-23T14:51:01;6.40;59.60
9425;DHT22;17139;52.140;11.636;2024-03-23T14:53:27;6.30;60.90
9425;DHT22;17139;52.140;11.636;2024-03-23T14:55:54;6.20;61.00
9425;DHT22;17139;52.140;11.636;2024-03-23T14:58:20;6.20;61.10
9425;DHT22;17139;52.140;11.636;2024-03-23T15:00:47;6.10;61.10
9425;DHT22;17139;52.140;11.636;2024-03-23T15:03:13;6.10;61.30
9425;DHT22;17139;52.140;11.636;2024-03-23T15:05:39;6.10;61.30
9425;DHT22;17139;52.140;11.636;2024-03-23T15:08:06;6.10;61.30
9425;DHT22;17139;52.140;11.636;2024-03-23T15:10:33;6.20;61.30
9425;DHT22;17139;52.140;11.636;2024-03-23T15:12:59;6.40;60.20
9425;DHT22;17139;52.140;11.636;2024-03-23T15:15:24;6.60;60.20
9425;DHT22;17139;52.140;11.636;2024-03-23T15:17:52;7.20;59.30
9425;DHT22;17139;52.140;11.636;2024-03-23T15:20:17;7.20;58.90
9425;DHT22;17139;52.140;11.636;2024-03-23T15:22:43;7.10;59.00
9425;DHT22;17139;52.140;11.636;2024-03-23T15:25:09;7.00;59.30
9425;DHT22;17139;52.140;11.636;2024-03-23T15:27:35;7.00;59.60
9425;DHT22;17139;52.140;11.636;2024-03-23T15:30:01;7.00;59.70
9425;DHT22;17139;52.140;11.636;2024-03-23T15:32:27;6.90;59.70
9425;DHT22;17139;52.140;11.636;2024-03-23T15:34:54;6.90;59.80
9425;DHT22;17139;52.140;11.636;2024-03-23T15:37:19;6.90;59.80
9425;DHT22;17139;52.140;11.636;2024-03-23T15:39:45;6.80;59.80
9425;DHT22;17139;52.140;11.636;2024-03-23T15:42:11;6.70;59.90
9425;DHT22;17139;52.140;11.636;2024-03-23T15:44:37;6.60;60.00
9425;DHT22;17139;52.140;11.636;2024-03-23T15:47:03;7.20;59.20
9425;DHT22;17139;52.140;11.636;2024-03-23T15:49:29;7.30;58.70
9425;DHT22;17139;52.140;11.636;2024-03-23T15:51:56;7.00;58.90
9425;DHT22;17139;52.140;11.636;2024-03-23T15:54:22;6.80;59.20
9425;DHT22;17139;52.140;11.636;2024-03-23T15:56:48;6.70;59.50
9425;DHT22;17139;52.140;11.636;2024-03-23T15:59:14;7.20;59.10
9425;DHT22;17139;52.140;11.636;2024-03-23T16:01:39;6.90;59.00
9425;DHT22;17139;52.140;11.636;2024-03-23T16:04:05;6.60;59.60
9425;DHT22;17139;52.140;11.636;2024-03-23T16:06:31;6.40;60.10
9425;DHT22;17139;52.140;11.636;2024-03-23T16:08:58;6.20;61.40
9425;DHT22;17139;52.140;11.636;2024-03-23T16:11:24;6.10;61.70
9425;DHT22;17139;52.140;11.636;2024-03-23T16:13:50;6.10;61.80
9425;DHT22;17139;52.140;11.636;2024-03-23T16:16:16;6.50;60.10
9425;DHT22;17139;52.140;11.636;2024-03-23T16:18:42;6.40;59.50
9425;DHT22;17139;52.140;11.636;2024-03-23T16:21:08;6.70;59.00
9425;DHT22;17139;52.140;11.636;2024-03-23T16:23:34;6.60;59.10
9425;DHT22;17139;52.140;11.636;2024-03-23T16:26:01;7.20;57.90
9425;DHT22;17139;52.140;11.636;2024-03-23T16:28:28;6.80;58.10
9425;DHT22;17139;52.140;11.636;2024-03-23T16:30:57;6.40;58.80
9425;DHT22;17139;52.140;11.636;2024-03-23T16:33:24;6.20;60.40